createdAt,value
2023-04-28T00:01:45.802Z,4.38
2023-04-28T00:04:13.134Z,4.53
2023-04-28T00:06:41.164Z,3.42
2023-04-28T00:09:11.961Z,3.70
2023-04-28T00:11:38.988Z,3.65
2023-04-28T00:14:06.271Z,4.22
2023-04-28T00:16:33.410Z,4.00
2023-04-28T00:19:00.363Z,4.03
2023-04-28T00:21:28.615Z,3.38
2023-04-28T00:23:55.869Z,3.40
2023-04-28T00:26:22.897Z,3.63
2023-04-28T00:28:50.360Z,3.13
2023-04-28T00:31:17.803Z,3.25
2023-04-28T00:33:45.332Z,3.72
2023-04-28T00:36:12.462Z,3.40
2023-04-28T00:38:39.620Z,3.22
2023-04-28T00:41:06.761Z,3.97
2023-04-28T00:43:45.665Z,3.55
2023-04-28T00:46:30.206Z,3.67
2023-04-28T00:48:58.361Z,3.65
2023-04-28T00:51:25.555Z,3.70
2023-04-28T00:53:52.712Z,3.42
2023-04-28T00:56:20.819Z,3.70
2023-04-28T00:58:47.748Z,3.30
2023-04-28T01:01:14.761Z,3.13
2023-04-28T01:03:42.130Z,3.08
2023-04-28T01:06:11.016Z,2.92
2023-04-28T01:08:39.553Z,4.07
2023-04-28T01:11:14.446Z,3.55
2023-04-28T01:14:01.578Z,3.40
2023-04-28T01:16:32.833Z,2.60
2023-04-28T01:19:01.569Z,2.80
2023-04-28T01:21:34.679Z,2.50
2023-04-28T01:24:15.901Z,3.15
2023-04-28T01:26:44.640Z,2.88
2023-04-28T01:29:11.753Z,3.00
2023-04-28T01:31:38.826Z,3.55
2023-04-28T01:34:05.854Z,2.78
2023-04-28T01:36:34.196Z,3.70
2023-04-28T01:39:03.853Z,3.20
2023-04-28T01:41:30.838Z,3.13
2023-04-28T01:43:58.008Z,3.33
2023-04-28T01:46:26.002Z,4.00
2023-04-28T01:48:53.034Z,3.05
2023-04-28T01:51:19.986Z,3.63
2023-04-28T01:53:46.961Z,3.33
2023-04-28T01:56:13.966Z,3.25
2023-04-28T01:58:41.098Z,3.97
2023-04-28T02:01:08.736Z,2.67
2023-04-28T02:03:36.226Z,3.08
2023-04-28T02:06:04.817Z,4.03
2023-04-28T02:08:31.879Z,3.40
2023-04-28T02:10:58.956Z,3.70
2023-04-28T02:13:25.945Z,3.33
2023-04-28T02:15:53.503Z,3.95
2023-04-28T02:18:21.621Z,4.20
2023-04-28T02:20:48.618Z,3.95
2023-04-28T02:23:15.629Z,3.22
2023-04-28T02:25:42.646Z,3.42
2023-04-28T02:28:13.233Z,3.50
2023-04-28T02:30:40.252Z,3.75
2023-04-28T02:33:07.260Z,3.30
2023-04-28T02:35:34.402Z,2.95
2023-04-28T02:38:01.603Z,3.38
2023-04-28T02:40:28.568Z,4.13
2023-04-28T02:42:55.603Z,3.35
2023-04-28T02:45:22.593Z,3.25
2023-04-28T02:47:49.607Z,3.35
2023-04-28T02:50:17.046Z,3.10
2023-04-28T02:52:44.032Z,3.70
2023-04-28T02:55:11.160Z,3.20
2023-04-28T02:57:38.143Z,2.88
2023-04-28T03:00:06.673Z,3.00
2023-04-28T03:02:41.863Z,3.28
2023-04-28T03:05:09.556Z,3.47
2023-04-28T03:07:37.181Z,3.38
2023-04-28T03:10:04.569Z,3.20
2023-04-28T03:12:31.705Z,3.72
2023-04-28T03:14:58.641Z,3.50
2023-04-28T03:17:25.732Z,4.30
2023-04-28T03:19:52.811Z,3.80
2023-04-28T03:22:19.782Z,4.15
2023-04-28T03:24:47.215Z,4.80
2023-04-28T03:27:14.169Z,3.53
2023-04-28T03:29:41.160Z,3.30
2023-04-28T03:32:08.265Z,4.03
2023-04-28T03:34:35.396Z,4.00
2023-04-28T03:37:02.349Z,3.50
2023-04-28T03:39:30.704Z,4.10
2023-04-28T03:41:57.949Z,3.63
2023-04-28T03:44:36.788Z,3.20
2023-04-28T03:47:04.836Z,3.85
2023-04-28T03:49:32.296Z,3.67
2023-04-28T03:51:59.303Z,3.83
2023-04-28T03:54:26.884Z,3.30
2023-04-28T03:56:54.260Z,3.10
2023-04-28T03:59:21.480Z,3.03
2023-04-28T04:01:49.704Z,3.42
2023-04-28T04:04:17.146Z,2.70
2023-04-28T04:06:45.187Z,3.95
2023-04-28T04:09:13.293Z,3.40
2023-04-28T04:11:41.150Z,3.15
2023-04-28T04:14:08.210Z,3.38
2023-04-28T04:16:36.878Z,3.40
2023-04-28T04:19:05.177Z,2.92
2023-04-28T04:21:42.322Z,2.97
2023-04-28T04:24:09.242Z,3.63
2023-04-28T04:26:36.226Z,3.70
2023-04-28T04:29:14.177Z,3.38
2023-04-28T04:31:41.301Z,3.20
2023-04-28T04:34:08.272Z,3.45
2023-04-28T04:36:35.228Z,3.00
2023-04-28T04:39:02.562Z,3.42
2023-04-28T04:41:29.560Z,3.58
2023-04-28T04:44:14.375Z,3.22
2023-04-28T04:46:47.189Z,3.33
2023-04-28T04:49:15.582Z,3.47
2023-04-28T04:51:42.537Z,3.45
2023-04-28T04:54:09.826Z,3.13
2023-04-28T04:56:39.335Z,2.90
2023-04-28T04:59:06.775Z,4.07
2023-04-28T05:01:45.719Z,3.10
2023-04-28T05:04:13.047Z,3.67
2023-04-28T05:06:40.738Z,3.70
2023-04-28T05:09:07.757Z,3.80
2023-04-28T05:11:34.698Z,4.50
2023-04-28T05:14:03.209Z,4.20
2023-04-28T05:16:30.970Z,3.72
2023-04-28T05:19:13.988Z,3.70
2023-04-28T05:21:41.838Z,3.85
2023-04-28T05:24:08.848Z,4.80
2023-04-28T05:26:36.740Z,3.92
2023-04-28T05:29:08.111Z,4.53
2023-04-28T05:31:35.131Z,4.93
2023-04-28T05:34:02.252Z,4.03
2023-04-28T05:36:29.496Z,4.50
2023-04-28T05:38:56.632Z,5.28
2023-04-28T05:41:23.721Z,5.25
2023-04-28T05:43:51.308Z,5.43
2023-04-28T05:46:29.971Z,5.07
2023-04-28T05:48:59.216Z,4.80
2023-04-28T05:51:28.106Z,5.18
2023-04-28T05:53:55.122Z,5.47
2023-04-28T05:56:22.466Z,4.80
2023-04-28T05:58:50.666Z,5.20
2023-04-28T06:01:18.230Z,5.38
2023-04-28T06:03:46.548Z,5.30
2023-04-28T06:06:14.153Z,5.32
2023-04-28T06:08:41.486Z,5.75
2023-04-28T06:11:08.431Z,6.70
2023-04-28T06:13:35.495Z,6.00
2023-04-28T06:16:04.272Z,5.82
2023-04-28T06:18:34.222Z,6.32
2023-04-28T06:21:02.883Z,5.70
2023-04-28T06:23:30.002Z,6.75
2023-04-28T06:25:56.963Z,6.88
2023-04-28T06:28:23.958Z,5.43
2023-04-28T06:30:53.479Z,6.22
2023-04-28T06:33:20.918Z,6.07
2023-04-28T06:35:47.878Z,6.22
2023-04-28T06:38:16.240Z,6.90
2023-04-28T06:40:43.261Z,7.70
2023-04-28T06:43:10.354Z,6.00
2023-04-28T06:46:01.029Z,6.75
2023-04-28T06:48:27.998Z,7.25
2023-04-28T06:50:55.159Z,6.80
2023-04-28T06:53:23.308Z,7.93
2023-04-28T06:55:50.621Z,8.20
2023-04-28T06:58:17.786Z,8.25
2023-04-28T07:00:44.904Z,7.60
2023-04-28T07:03:12.330Z,7.85
2023-04-28T07:05:39.384Z,9.25
2023-04-28T07:08:06.848Z,8.35
2023-04-28T07:10:33.820Z,9.27
2023-04-28T07:13:00.770Z,8.57
2023-04-28T07:15:28.582Z,7.80
2023-04-28T07:17:55.634Z,9.55
2023-04-28T07:20:22.767Z,10.25
2023-04-28T07:22:49.687Z,10.57
2023-04-28T07:25:16.686Z,9.10
2023-04-28T07:27:43.641Z,9.32
2023-04-28T07:30:26.036Z,9.85
2023-04-28T07:32:54.135Z,9.18
2023-04-28T07:35:21.238Z,8.07
2023-04-28T07:37:48.425Z,12.35
2023-04-28T07:40:16.498Z,9.88
2023-04-28T07:42:43.623Z,9.40
2023-04-28T07:45:15.853Z,9.25
2023-04-28T07:47:43.050Z,10.98
2023-04-28T07:50:12.518Z,9.32
2023-04-28T07:52:39.850Z,10.23
2023-04-28T07:55:07.752Z,11.13
2023-04-28T07:57:35.907Z,10.43
2023-04-28T08:00:03.525Z,12.07
2023-04-28T08:02:39.049Z,11.23
2023-04-28T08:05:07.839Z,9.77
2023-04-28T08:07:38.598Z,10.35
2023-04-28T08:10:06.455Z,11.05
2023-04-28T08:12:33.747Z,10.77
2023-04-28T08:15:01.440Z,10.68
2023-04-28T08:17:28.515Z,11.48
2023-04-28T08:19:55.657Z,10.65
2023-04-28T08:22:25.662Z,10.30
2023-04-28T08:24:52.973Z,10.23
2023-04-28T08:27:20.067Z,11.10
2023-04-28T08:29:47.304Z,12.27
2023-04-28T08:32:14.726Z,14.98
2023-04-28T08:34:41.674Z,11.60
2023-04-28T08:37:09.128Z,12.57
2023-04-28T08:39:36.442Z,12.95
2023-04-28T08:42:04.846Z,11.30
2023-04-28T08:44:39.514Z,13.82
2023-04-28T08:47:14.364Z,13.27
2023-04-28T08:49:42.284Z,13.18
2023-04-28T08:52:17.151Z,12.52
2023-04-28T08:54:45.003Z,15.40
2023-04-28T08:57:12.171Z,14.98
2023-04-28T08:59:41.285Z,14.80
2023-04-28T09:02:14.435Z,15.65
2023-04-28T09:04:41.928Z,15.63
2023-04-28T09:07:12.518Z,15.75
2023-04-28T09:09:41.240Z,15.43
2023-04-28T09:12:08.298Z,15.18
2023-04-28T09:14:38.239Z,16.08
2023-04-28T09:17:13.505Z,15.85
2023-04-28T09:19:45.005Z,14.90
2023-04-28T09:22:25.581Z,14.63
2023-04-28T09:24:55.598Z,14.40
2023-04-28T09:27:29.520Z,15.40
2023-04-28T09:29:56.812Z,15.85
2023-04-28T09:32:25.908Z,17.05
2023-04-28T09:34:57.201Z,16.55
2023-04-28T09:37:31.562Z,18.35
2023-04-28T09:40:09.608Z,18.17
2023-04-28T09:42:45.986Z,19.50
2023-04-28T09:45:15.073Z,19.55
2023-04-28T09:47:46.382Z,21.15
2023-04-28T09:50:17.481Z,21.88
2023-04-28T09:52:49.606Z,18.77
2023-04-28T09:55:17.855Z,19.80
2023-04-28T09:57:49.838Z,21.42
2023-04-28T10:00:18.750Z,22.25
2023-04-28T10:02:46.381Z,20.15
2023-04-28T10:05:17.302Z,18.08
2023-04-28T10:07:44.679Z,19.27
2023-04-28T10:10:14.789Z,19.50
2023-04-28T10:12:42.379Z,18.30
2023-04-28T10:15:10.863Z,19.00
2023-04-28T10:17:39.369Z,18.50
2023-04-28T10:20:08.879Z,18.42
2023-04-28T10:23:09.656Z,19.25
2023-04-28T10:25:39.103Z,17.20
2023-04-28T10:28:09.109Z,18.60
2023-04-28T10:30:38.193Z,17.98
2023-04-28T10:33:14.277Z,17.40
2023-04-28T10:35:47.857Z,17.58
2023-04-28T10:38:16.677Z,16.17
2023-04-28T10:40:45.140Z,17.27
2023-04-28T10:43:14.839Z,18.15
2023-04-28T10:45:56.640Z,17.55
2023-04-28T10:48:48.119Z,16.42
2023-04-28T10:51:15.339Z,16.02
2023-04-28T10:53:46.198Z,16.13
2023-04-28T10:56:26.801Z,16.27
2023-04-28T10:58:58.221Z,15.93
2023-04-28T11:01:35.016Z,14.65
2023-04-28T11:04:15.792Z,15.25
2023-04-28T11:06:48.062Z,14.38
2023-04-28T11:09:15.478Z,16.10
2023-04-28T11:11:56.177Z,15.32
2023-04-28T11:14:23.501Z,14.85
2023-04-28T11:16:56.363Z,14.93
2023-04-28T11:19:28.982Z,14.43
2023-04-28T11:21:59.010Z,15.15
2023-04-28T11:24:29.008Z,14.82
2023-04-28T11:27:00.799Z,17.45
2023-04-28T11:29:39.628Z,14.35
2023-04-28T11:32:09.891Z,16.52
2023-04-28T11:34:38.158Z,14.70
2023-04-28T11:37:08.527Z,14.80
2023-04-28T11:39:35.980Z,14.88
2023-04-28T11:42:10.510Z,15.90
2023-04-28T11:44:38.137Z,15.88
2023-04-28T11:47:06.924Z,16.55
2023-04-28T11:49:47.693Z,14.75
2023-04-28T11:52:14.923Z,16.05
2023-04-28T11:54:43.779Z,16.42
2023-04-28T11:57:23.343Z,16.63
2023-04-28T11:59:51.284Z,17.15
2023-04-28T12:02:31.867Z,17.13
2023-04-28T12:05:07.740Z,15.93
2023-04-28T12:07:45.708Z,13.55
2023-04-28T12:10:17.232Z,12.45
2023-04-28T12:12:51.627Z,12.50
2023-04-28T12:15:21.234Z,8.40
2023-04-28T12:17:50.757Z,8.55
2023-04-28T12:20:38.243Z,8.68
2023-04-28T12:23:06.209Z,8.80
2023-04-28T12:25:35.239Z,8.32
2023-04-28T12:28:08.479Z,8.30
2023-04-28T12:30:42.582Z,7.35
2023-04-28T12:33:27.058Z,7.68
2023-04-28T12:35:56.035Z,8.57
2023-04-28T12:38:26.693Z,7.07
2023-04-28T12:40:53.935Z,7.80
2023-04-28T12:43:24.405Z,8.73
2023-04-28T12:45:55.716Z,7.88
2023-04-28T12:48:25.301Z,7.60
2023-04-28T12:50:52.571Z,6.95
2023-04-28T12:53:20.094Z,6.43
2023-04-28T12:55:47.064Z,8.52
2023-04-28T12:58:14.175Z,7.68
2023-04-28T13:00:41.940Z,6.57
2023-04-28T13:03:09.315Z,6.22
2023-04-28T13:05:36.456Z,7.28
2023-04-28T13:08:04.528Z,5.63
2023-04-28T13:10:31.591Z,5.18
2023-04-28T13:12:58.570Z,5.70
2023-04-28T13:15:25.889Z,4.97
2023-04-28T13:17:53.372Z,5.88
2023-04-28T13:20:20.399Z,5.43
2023-04-28T13:22:47.481Z,5.75
2023-04-28T13:25:15.242Z,5.28
2023-04-28T13:27:43.442Z,4.78
2023-04-28T13:30:12.032Z,4.57
2023-04-28T13:32:39.096Z,5.18
2023-04-28T13:35:07.124Z,4.55
2023-04-28T13:37:34.083Z,5.70
2023-04-28T13:40:04.015Z,4.75
2023-04-28T13:42:31.467Z,5.03
2023-04-28T13:44:58.541Z,5.32
2023-04-28T13:47:27.193Z,5.28
2023-04-28T13:49:54.278Z,5.72
2023-04-28T13:52:22.474Z,4.95
2023-04-28T13:54:49.743Z,4.35
2023-04-28T13:57:17.012Z,4.07
2023-04-28T13:59:44.167Z,3.95
2023-04-28T14:02:11.916Z,3.35
2023-04-28T14:04:39.226Z,3.20
2023-04-28T14:07:06.772Z,3.15
2023-04-28T14:09:34.332Z,3.28
2023-04-28T14:12:02.376Z,2.30
2023-04-28T14:14:29.794Z,2.65
2023-04-28T14:16:57.695Z,1.98
2023-04-28T14:19:27.062Z,1.33
2023-04-28T14:21:54.134Z,1.33
2023-04-28T14:24:21.833Z,1.55
2023-04-28T14:26:49.706Z,1.27
2023-04-28T14:29:17.223Z,1.27
2023-04-28T14:31:46.204Z,1.38
2023-04-28T14:34:13.385Z,1.25
2023-04-28T14:36:42.221Z,1.50
2023-04-28T14:39:09.305Z,1.42
2023-04-28T14:41:37.151Z,1.65
2023-04-28T14:44:04.719Z,1.30
2023-04-28T14:46:31.793Z,1.73
2023-04-28T14:48:59.080Z,1.70
2023-04-28T14:51:26.426Z,1.83
2023-04-28T14:53:53.439Z,1.48
2023-04-28T14:56:20.638Z,1.83
2023-04-28T14:58:48.538Z,2.55
2023-04-28T15:01:16.071Z,1.90
2023-04-28T15:03:43.680Z,2.28
2023-04-28T15:06:12.007Z,2.20
2023-04-28T15:08:40.571Z,1.90
2023-04-28T15:11:07.950Z,2.42
2023-04-28T15:13:35.290Z,2.50
2023-04-28T15:16:03.640Z,3.00
2023-04-28T15:18:31.274Z,2.55
2023-04-28T15:20:58.535Z,2.92
2023-04-28T15:23:26.103Z,3.72
2023-04-28T15:25:54.161Z,3.80
2023-04-28T15:28:22.191Z,3.42
2023-04-28T15:30:49.494Z,3.00
2023-04-28T15:33:19.338Z,3.95
2023-04-28T15:35:47.169Z,2.92
2023-04-28T15:38:14.795Z,3.42
2023-04-28T15:40:44.613Z,3.03
2023-04-28T15:43:13.347Z,4.03
2023-04-28T15:45:40.610Z,4.63
2023-04-28T15:48:09.216Z,4.32
2023-04-28T15:50:37.582Z,4.15
2023-04-28T15:53:04.785Z,4.38
2023-04-28T15:55:31.958Z,4.28
2023-04-28T15:57:59.024Z,4.57
2023-04-28T16:00:26.360Z,3.72
2023-04-28T16:02:53.554Z,4.10
2023-04-28T16:05:20.995Z,4.57
2023-04-28T16:07:48.632Z,4.20
2023-04-28T16:10:16.794Z,4.85
2023-04-28T16:12:46.898Z,4.90
2023-04-28T16:15:14.603Z,4.88
2023-04-28T16:17:42.453Z,5.28
2023-04-28T16:20:11.668Z,6.45
2023-04-28T16:22:40.735Z,5.85
2023-04-28T16:25:09.456Z,6.25
2023-04-28T16:27:38.800Z,5.25
2023-04-28T16:30:07.451Z,5.35
2023-04-28T16:32:37.310Z,5.53
2023-04-28T16:35:06.419Z,4.85
2023-04-28T16:37:33.756Z,5.18
2023-04-28T16:40:04.850Z,5.03
2023-04-28T16:42:31.896Z,4.53
2023-04-28T16:44:59.819Z,4.60
2023-04-28T16:47:27.166Z,4.95
2023-04-28T16:49:54.467Z,5.72
2023-04-28T16:52:21.536Z,4.97
2023-04-28T16:54:48.533Z,4.82
2023-04-28T16:57:15.540Z,5.45
2023-04-28T16:59:42.445Z,4.68
2023-04-28T17:02:09.410Z,4.93
2023-04-28T17:04:37.247Z,4.32
2023-04-28T17:07:05.222Z,4.22
2023-04-28T17:09:33.371Z,5.22
2023-04-28T17:12:00.936Z,4.57
2023-04-28T17:14:27.975Z,5.40
2023-04-28T17:16:54.995Z,5.70
2023-04-28T17:19:22.426Z,5.50
2023-04-28T17:21:52.333Z,5.10
2023-04-28T17:24:19.392Z,6.07
2023-04-28T17:26:47.479Z,6.18
2023-04-28T17:29:14.578Z,6.00
2023-04-28T17:31:41.934Z,5.95
2023-04-28T17:34:08.919Z,6.43
2023-04-28T17:36:36.015Z,5.40
2023-04-28T17:39:04.593Z,6.97
2023-04-28T17:41:32.219Z,6.43
2023-04-28T17:43:59.212Z,5.68
2023-04-28T17:46:27.381Z,6.00
2023-04-28T17:48:54.582Z,4.35
2023-04-28T17:51:21.917Z,5.22
2023-04-28T17:53:49.266Z,5.63
2023-04-28T17:56:17.002Z,5.25
2023-04-28T17:58:44.508Z,5.32
2023-04-28T18:01:11.729Z,5.15
2023-04-28T18:03:39.732Z,5.13
2023-04-28T18:06:08.068Z,5.10
2023-04-28T18:08:36.870Z,5.78
2023-04-28T18:11:05.024Z,4.47
2023-04-28T18:13:33.302Z,5.47
2023-04-28T18:16:00.937Z,5.38
2023-04-28T18:18:30.175Z,5.57
2023-04-28T18:20:59.683Z,5.40
2023-04-28T18:23:27.319Z,6.45
2023-04-28T18:25:54.380Z,5.18
2023-04-28T18:28:21.426Z,6.32
2023-04-28T18:30:48.549Z,5.65
2023-04-28T18:33:17.039Z,5.88
2023-04-28T18:35:44.891Z,5.20
2023-04-28T18:38:11.901Z,4.97
2023-04-28T18:40:39.891Z,5.45
2023-04-28T18:43:08.756Z,5.43
2023-04-28T18:45:39.179Z,5.47
2023-04-28T18:48:07.840Z,5.80
2023-04-28T18:50:35.182Z,5.85
2023-04-28T18:53:04.179Z,6.05
2023-04-28T18:55:33.559Z,5.15
2023-04-28T18:58:02.118Z,6.40
2023-04-28T19:00:29.867Z,5.90
2023-04-28T19:02:57.032Z,6.25
2023-04-28T19:05:24.249Z,8.35
2023-04-28T19:07:51.216Z,7.22
2023-04-28T19:10:18.267Z,9.20
2023-04-28T19:12:45.240Z,8.32
2023-04-28T19:15:12.598Z,9.15
2023-04-28T19:17:39.704Z,8.25
2023-04-28T19:20:07.818Z,10.73
2023-04-28T19:22:36.688Z,9.55
2023-04-28T19:25:05.343Z,9.75
2023-04-28T19:27:35.080Z,9.10
2023-04-28T19:30:03.754Z,8.90
2023-04-28T19:32:30.842Z,10.10
2023-04-28T19:34:57.973Z,9.90
2023-04-28T19:37:27.945Z,9.82
2023-04-28T19:39:55.162Z,10.10
2023-04-28T19:42:22.223Z,9.68
2023-04-28T19:44:55.737Z,9.88
2023-04-28T19:47:27.399Z,10.93
2023-04-28T19:49:54.768Z,10.98
2023-04-28T19:52:22.582Z,11.35
2023-04-28T19:54:50.731Z,10.82
2023-04-28T19:57:19.200Z,11.75
2023-04-28T19:59:47.584Z,11.15
2023-04-28T20:02:16.105Z,10.75
2023-04-28T20:04:43.544Z,12.88
2023-04-28T20:07:11.735Z,11.00
2023-04-28T20:09:39.059Z,11.88
2023-04-28T20:12:08.668Z,12.48
2023-04-28T20:14:37.203Z,11.82
2023-04-28T20:17:05.500Z,12.93
2023-04-28T20:19:32.665Z,13.82
2023-04-28T20:22:04.864Z,13.50
2023-04-28T20:24:36.741Z,15.93
2023-04-28T20:27:04.251Z,16.85
2023-04-28T20:29:34.758Z,16.92
2023-04-28T20:32:03.543Z,16.50
2023-04-28T20:34:31.587Z,16.52
2023-04-28T20:36:59.601Z,17.33
2023-04-28T20:39:26.597Z,18.90
2023-04-28T20:41:53.601Z,16.95
2023-04-28T20:44:20.667Z,18.15
2023-04-28T20:46:47.776Z,17.88
2023-04-28T20:49:15.225Z,19.38
2023-04-28T20:51:45.266Z,19.85
2023-04-28T20:54:13.035Z,20.48
2023-04-28T20:56:42.050Z,20.85
2023-04-28T20:59:09.032Z,22.58
2023-04-28T21:01:36.010Z,22.98
2023-04-28T21:04:03.134Z,22.10
2023-04-28T21:06:30.433Z,24.15
2023-04-28T21:08:57.436Z,24.83
2023-04-28T21:11:24.570Z,27.55
2023-04-28T21:13:51.493Z,25.98
2023-04-28T21:16:21.472Z,26.90
2023-04-28T21:18:49.813Z,27.45
2023-04-28T21:21:17.469Z,26.65
2023-04-28T21:23:44.506Z,28.17
2023-04-28T21:26:11.537Z,28.58
2023-04-28T21:28:40.034Z,26.65
2023-04-28T21:31:07.277Z,29.17
2023-04-28T21:33:34.415Z,31.30
2023-04-28T21:36:09.053Z,27.65
2023-04-28T21:38:37.971Z,28.23
2023-04-28T21:41:05.523Z,28.90
2023-04-28T21:43:32.458Z,30.15
2023-04-28T21:45:59.490Z,31.08
2023-04-28T21:48:26.892Z,29.25
2023-04-28T21:50:53.947Z,30.90
2023-04-28T21:53:20.967Z,31.50
2023-04-28T21:55:48.074Z,28.67
2023-04-28T21:58:15.229Z,26.35
2023-04-28T22:00:48.942Z,25.15
2023-04-28T22:03:16.746Z,23.73
2023-04-28T22:05:45.145Z,21.58
2023-04-28T22:08:13.755Z,23.00
2023-04-28T22:10:41.409Z,23.50
2023-04-28T22:13:09.130Z,24.58
2023-04-28T22:15:36.290Z,22.60
2023-04-28T22:18:03.719Z,21.10
2023-04-28T22:20:32.088Z,23.52
2023-04-28T22:22:59.526Z,22.33
2023-04-28T22:25:26.773Z,21.95
2023-04-28T22:27:53.878Z,19.85
2023-04-28T22:30:21.240Z,21.90
2023-04-28T22:32:49.439Z,19.63
2023-04-28T22:35:17.132Z,19.73
2023-04-28T22:37:44.480Z,19.80
2023-04-28T22:40:11.885Z,17.80
2023-04-28T22:42:40.554Z,19.00
2023-04-28T22:45:10.276Z,17.63
2023-04-28T22:47:40.617Z,17.33
2023-04-28T22:50:11.471Z,18.23
2023-04-28T22:52:39.129Z,17.50
2023-04-28T22:55:06.802Z,17.67
2023-04-28T22:57:34.105Z,17.98
2023-04-28T23:00:01.593Z,20.33
2023-04-28T23:02:29.133Z,17.38
2023-04-28T23:04:56.982Z,18.80
2023-04-28T23:07:24.548Z,17.83
2023-04-28T23:09:51.958Z,18.60
2023-04-28T23:12:19.332Z,16.60
2023-04-28T23:14:46.395Z,18.65
2023-04-28T23:17:13.317Z,19.02
2023-04-28T23:19:40.578Z,17.80
2023-04-28T23:22:08.696Z,18.55
2023-04-28T23:24:37.118Z,18.92
2023-04-28T23:27:04.637Z,16.75
2023-04-28T23:29:32.237Z,19.67
2023-04-28T23:31:59.561Z,17.85
2023-04-28T23:34:26.808Z,18.83
2023-04-28T23:36:53.844Z,17.13
2023-04-28T23:39:20.871Z,17.33
2023-04-28T23:41:47.845Z,16.95
2023-04-28T23:44:14.922Z,17.90
2023-04-28T23:46:41.878Z,16.17
2023-04-28T23:49:09.098Z,16.13
2023-04-28T23:51:36.026Z,16.65
2023-04-28T23:54:03.672Z,17.27
2023-04-28T23:56:31.657Z,16.20
2023-04-28T23:58:58.694Z,16.67
